Time;durP1;ratioP1;P1;durP2;ratioP2;P2;SDS_P1;SDS_P2;PMS_P1;PMS_P2;Temp;Humidity;BMP_temperature;BMP_pressure;BME280_temperature;BME280_humidity;BME280_pressure;Samples;Min_cycle;Max_cycle;Signal;HPM_P1;HPM_P2
2023/03/23 00:01:20;;;;;;;10.20;4.80;;;9.50;31.10;;;;;;5065582;28;46488;-65
2023/03/23 00:03:48;;;;;;;18.00;4.60;;;9.30;31.20;;;;;;5062528;28;47258;-66
2023/03/23 00:06:17;;;;;;;15.50;4.80;;;9.20;31.50;;;;;;5049410;28;46433;-64
2023/03/23 00:08:44;;;;;;;17.87;6.03;;;9.10;31.70;;;;;;5049935;28;46403;-65
2023/03/23 00:11:15;;;;;;;15.17;6.00;;;9.00;32.00;;;;;;5049611;28;46561;-65
2023/03/23 00:13:43;;;;;;;21.93;5.20;;;9.00;32.30;;;;;;5049707;28;46318;-65
2023/03/23 00:16:17;;;;;;;8.97;4.87;;;8.80;32.50;;;;;;5046500;28;46246;-66
2023/03/23 00:18:53;;;;;;;13.00;4.63;;;8.70;32.90;;;;;;5049461;28;46413;-66
2023/03/23 00:21:33;;;;;;;7.93;5.80;;;8.80;33.10;;;;;;5049110;28;46453;-65
2023/03/23 00:24:03;;;;;;;17.93;6.07;;;8.80;33.20;;;;;;5049480;28;47084;-66
2023/03/23 00:26:33;;;;;;;9.87;5.23;;;8.80;33.30;;;;;;5049186;28;46764;-65
2023/03/23 00:29:04;;;;;;;9.63;5.27;;;8.80;33.20;;;;;;5047662;28;46404;-65
2023/03/23 00:31:32;;;;;;;13.27;5.17;;;8.80;33.20;;;;;;5049802;28;46523;-66
2023/03/23 00:34:03;;;;;;;17.30;6.10;;;8.80;33.20;;;;;;5050795;28;46979;-65
2023/03/23 00:36:31;;;;;;;15.13;5.77;;;8.80;33.50;;;;;;5049109;28;46818;-66
2023/03/23 00:38:57;;;;;;;12.87;5.37;;;8.80;33.50;;;;;;5049012;28;46362;-66
2023/03/23 00:41:26;;;;;;;14.40;6.07;;;8.70;33.60;;;;;;5050435;28;46359;-65
2023/03/23 00:43:53;;;;;;;18.93;5.90;;;8.70;33.70;;;;;;5047711;28;46694;-66
2023/03/23 00:46:20;;;;;;;9.27;6.00;;;8.70;33.80;;;;;;5049102;28;46392;-66
2023/03/23 00:48:46;;;;;;;12.37;5.70;;;8.70;33.80;;;;;;5048885;28;46440;-66
2023/03/23 00:51:12;;;;;;;8.70;5.43;;;8.60;33.90;;;;;;5050155;28;46475;-65
2023/03/23 00:53:39;;;;;;;9.70;5.20;;;8.60;34.00;;;;;;5048502;28;46525;-65
2023/03/23 00:56:06;;;;;;;8.97;4.60;;;8.60;34.20;;;;;;5049265;28;46402;-66
2023/03/23 00:58:31;;;;;;;11.87;6.03;;;8.60;34.40;;;;;;5049923;28;46615;-65
2023/03/23 01:00:57;;;;;;;10.00;4.80;;;8.60;34.30;;;;;;5050120;28;46416;-66
2023/03/23 01:03:25;;;;;;;10.30;5.27;;;8.60;34.20;;;;;;5047554;28;46920;-65
2023/03/23 01:05:52;;;;;;;10.70;5.43;;;8.60;34.00;;;;;;5043619;28;46475;-66
2023/03/23 01:08:18;;;;;;;9.40;5.67;;;8.70;34.10;;;;;;5049351;28;45792;-66
2023/03/23 01:10:45;;;;;;;10.37;6.30;;;8.70;34.00;;;;;;5047171;28;46369;-65
2023/03/23 01:13:11;;;;;;;11.00;5.33;;;8.70;34.00;;;;;;5046921;28;47383;-65
2023/03/23 01:15:38;;;;;;;10.50;5.20;;;8.80;33.80;;;;;;5048719;28;45815;-65
2023/03/23 01:18:04;;;;;;;10.63;4.93;;;8.80;34.00;;;;;;5047284;28;46509;-65
2023/03/23 01:20:31;;;;;;;9.30;5.33;;;8.80;33.80;;;;;;5047817;28;46000;-65
2023/03/23 01:23:00;;;;;;;8.60;4.97;;;8.80;34.00;;;;;;5048344;28;46683;-65
2023/03/23 01:25:31;;;;;;;9.93;5.53;;;8.80;34.00;;;;;;5048090;28;46400;-66
2023/03/23 01:27:58;;;;;;;9.63;4.93;;;8.80;34.20;;;;;;5048585;28;46460;-65
2023/03/23 01:30:24;;;;;;;9.00;5.47;;;8.70;34.20;;;;;;5049872;28;46545;-65
2023/03/23 01:32:51;;;;;;;8.33;5.17;;;8.70;34.10;;;;;;5048377;28;46528;-65
2023/03/23 01:35:17;;;;;;;10.63;5.80;;;8.80;34.20;;;;;;5046464;28;46476;-65
2023/03/23 01:37:43;;;;;;;12.20;5.10;;;8.80;34.30;;;;;;5049496;28;46410;-65
2023/03/23 01:40:09;;;;;;;9.03;5.00;;;8.80;34.40;;;;;;5048964;28;46483;-65
2023/03/23 01:42:38;;;;;;;8.00;5.27;;;8.80;34.50;;;;;;5048677;28;46395;-66
2023/03/23 01:45:19;;;;;;;7.77;4.70;;;8.90;34.50;;;;;;5048639;28;45905;-65
2023/03/23 01:47:51;;;;;;;7.60;5.10;;;8.90;34.50;;;;;;5050345;28;46675;-65
2023/03/23 01:50:20;;;;;;;10.90;5.00;;;8.90;34.20;;;;;;5046325;28;46318;-65
2023/03/23 01:52:46;;;;;;;11.00;5.50;;;9.00;34.20;;;;;;5047773;28;46448;-65
2023/03/23 01:55:12;;;;;;;12.80;6.00;;;8.90;34.40;;;;;;5047646;28;46404;-66
2023/03/23 01:57:37;;;;;;;9.97;5.47;;;8.90;34.70;;;;;;5048449;28;46457;-66
2023/03/23 02:00:10;;;;;;;8.57;5.63;;;8.90;34.80;;;;;;5047131;28;47002;-64
2023/03/23 02:02:38;;;;;;;11.40;4.80;;;9.00;35.00;;;;;;5049283;28;46409;-66
2023/03/23 02:05:11;;;;;;;8.07;5.40;;;9.00;34.80;;;;;;5046693;28;46687;-66
2023/03/23 02:07:37;;;;;;;7.03;4.53;;;9.00;35.00;;;;;;5047514;28;46392;-66
2023/03/23 02:10:03;;;;;;;8.67;5.27;;;9.10;35.00;;;;;;5048155;28;46594;-65
2023/03/23 02:12:29;;;;;;;9.00;4.73;;;9.00;35.00;;;;;;5045145;28;46139;-66
2023/03/23 02:14:55;;;;;;;8.33;4.70;;;9.00;35.00;;;;;;5046809;28;46447;-66
2023/03/23 02:17:26;;;;;;;7.60;4.97;;;9.10;35.10;;;;;;5048377;28;46459;-65
2023/03/23 02:20:13;;;;;;;7.43;4.93;;;9.00;35.00;;;;;;5048689;28;46481;-66
2023/03/23 02:22:53;;;;;;;8.50;4.87;;;9.10;35.10;;;;;;5047144;28;46722;-66
2023/03/23 02:25:41;;;;;;;9.53;5.17;;;9.10;35.20;;;;;;5048110;28;46376;-65
2023/03/23 02:28:29;;;;;;;8.90;5.17;;;9.10;35.30;;;;;;5038426;28;46977;-65
2023/03/23 02:31:48;;;;;;;8.00;4.90;;;9.10;35.30;;;;;;5045298;28;46425;-65
2023/03/23 02:34:35;;;;;;;10.90;5.33;;;9.20;35.90;;;;;;5013340;28;47236;-66
2023/03/23 02:37:27;;;;;;;8.63;5.40;;;9.20;36.00;;;;;;5044718;28;46502;-65
2023/03/23 02:40:01;;;;;;;9.30;5.13;;;9.30;36.00;;;;;;5045278;28;46738;-66
2023/03/23 02:42:34;;;;;;;9.37;5.07;;;9.30;37.00;;;;;;5047706;28;46566;-65
2023/03/23 02:45:05;;;;;;;8.77;4.33;;;9.40;35.90;;;;;;5047088;28;46782;-65
2023/03/23 02:47:33;;;;;;;7.57;4.27;;;9.40;35.80;;;;;;5044432;28;46454;-65
2023/03/23 02:49:59;;;;;;;7.60;5.10;;;9.50;36.00;;;;;;5048303;28;46490;-65
2023/03/23 02:52:30;;;;;;;8.40;4.20;;;9.60;36.00;;;;;;5047249;28;47155;-65
2023/03/23 02:54:58;;;;;;;6.70;4.47;;;9.70;35.70;;;;;;5044964;28;46718;-66
2023/03/23 02:57:25;;;;;;;10.43;4.70;;;9.70;35.80;;;;;;5046040;28;46705;-65
2023/03/23 02:59:51;;;;;;;9.37;5.00;;;9.70;35.60;;;;;;5047256;28;46495;-65
2023/03/23 03:02:40;;;;;;;7.17;4.30;;;9.80;35.60;;;;;;5049274;28;45856;-65
2023/03/23 03:05:06;;;;;;;13.67;4.50;;;9.70;35.60;;;;;;5048422;28;46597;-65
2023/03/23 03:07:40;;;;;;;5.50;3.90;;;9.70;35.70;;;;;;5051050;28;46434;-66
2023/03/23 03:10:11;;;;;;;8.80;4.73;;;9.70;36.90;;;;;;5047848;28;46437;-66
2023/03/23 03:12:56;;;;;;;6.87;4.20;;;9.70;35.70;;;;;;5046274;28;46416;-66
2023/03/23 03:15:32;;;;;;;9.60;4.40;;;9.80;35.70;;;;;;5044598;28;49354;-67
2023/03/23 03:18:11;;;;;;;6.40;4.37;;;9.80;35.50;;;;;;5045735;28;46418;-66
2023/03/23 03:20:42;;;;;;;8.17;4.43;;;9.80;35.60;;;;;;5043502;28;46385;-66
2023/03/23 03:23:09;;;;;;;8.57;5.00;;;9.90;35.70;;;;;;5040867;28;46678;-67
2023/03/23 03:25:36;;;;;;;7.70;4.87;;;9.80;35.70;;;;;;5045721;28;47286;-67
2023/03/23 03:28:03;;;;;;;7.90;4.20;;;9.80;36.10;;;;;;5046797;28;46443;-67
2023/03/23 03:30:32;;;;;;;7.93;4.20;;;9.80;36.20;;;;;;5045557;28;46684;-66
2023/03/23 03:33:00;;;;;;;6.43;4.30;;;9.80;36.20;;;;;;5046294;28;45905;-66
2023/03/23 03:35:26;;;;;;;6.80;3.77;;;9.90;36.20;;;;;;5042848;28;46676;-67
2023/03/23 03:37:52;;;;;;;6.40;4.50;;;9.90;36.10;;;;;;5043983;28;46449;-66
2023/03/23 03:40:20;;;;;;;10.17;4.67;;;9.90;36.00;;;;;;5049073;28;46366;-67
2023/03/23 03:42:46;;;;;;;9.73;4.27;;;10.00;35.00;;;;;;5046929;28;46598;-67
2023/03/23 03:45:15;;;;;;;8.77;4.73;;;10.00;34.90;;;;;;5045696;28;46452;-67
2023/03/23 03:47:41;;;;;;;8.33;4.10;;;10.10;34.80;;;;;;5047888;28;46411;-67
2023/03/23 03:50:07;;;;;;;6.97;4.60;;;10.10;34.70;;;;;;5048562;28;46467;-67
2023/03/23 03:52:33;;;;;;;6.67;4.00;;;10.10;34.70;;;;;;5049609;28;46636;-67
2023/03/23 03:54:59;;;;;;;6.27;3.80;;;9.90;36.00;;;;;;5048614;28;46679;-67
2023/03/23 03:57:25;;;;;;;6.30;4.27;;;9.80;36.20;;;;;;5048359;28;46418;-66
2023/03/23 03:59:51;;;;;;;10.43;4.40;;;9.80;36.60;;;;;;5048480;28;46213;-67
2023/03/23 04:02:19;;;;;;;7.73;4.73;;;9.80;36.70;;;;;;5048136;28;45815;-67
2023/03/23 04:04:46;;;;;;;7.00;4.80;;;9.80;36.90;;;;;;5050060;28;46911;-65
2023/03/23 04:07:13;;;;;;;7.57;4.37;;;9.70;36.90;;;;;;5049144;28;46900;-66
2023/03/23 04:09:43;;;;;;;7.93;4.70;;;9.70;37.20;;;;;;5048810;28;46545;-66
2023/03/23 04:12:09;;;;;;;10.43;4.70;;;9.80;37.20;;;;;;5049531;28;46410;-66
2023/03/23 04:14:35;;;;;;;9.53;4.60;;;9.80;36.90;;;;;;5049414;28;46090;-66
2023/03/23 04:17:00;;;;;;;8.40;5.03;;;9.90;36.80;;;;;;5050175;28;46547;-66
2023/03/23 04:19:28;;;;;;;7.73;4.53;;;9.90;36.80;;;;;;5050247;28;46521;-66
2023/03/23 04:21:54;;;;;;;7.80;5.20;;;10.00;35.80;;;;;;5049833;28;46480;-67
2023/03/23 04:24:24;;;;;;;7.60;4.37;;;10.00;35.70;;;;;;5050712;28;46680;-66
2023/03/23 04:26:51;;;;;;;10.20;4.93;;;10.00;35.60;;;;;;5047835;28;46497;-66
2023/03/23 04:29:18;;;;;;;7.20;4.50;;;10.10;35.70;;;;;;5050488;28;45801;-66
2023/03/23 04:31:45;;;;;;;7.37;4.07;;;10.10;35.60;;;;;;5047366;28;46142;-66
2023/03/23 04:34:14;;;;;;;10.23;4.13;;;10.10;35.50;;;;;;5049610;28;47140;-66
2023/03/23 04:36:40;;;;;;;6.30;3.80;;;10.20;35.60;;;;;;5048463;28;46286;-66
2023/03/23 04:39:09;;;;;;;5.70;3.90;;;10.30;35.60;;;;;;5048736;28;46394;-66
2023/03/23 04:41:38;;;;;;;12.40;4.63;;;10.30;35.40;;;;;;5049138;28;46520;-66
2023/03/23 04:44:05;;;;;;;8.20;3.90;;;10.40;35.40;;;;;;5049277;28;46745;-66
2023/03/23 04:46:30;;;;;;;10.43;4.10;;;10.40;35.20;;;;;;5048183;28;45905;-65
2023/03/23 04:49:00;;;;;;;8.73;4.10;;;10.50;35.20;;;;;;5054067;28;46455;-66
2023/03/23 04:51:31;;;;;;;8.37;3.70;;;10.50;35.00;;;;;;5048549;28;46393;-66
2023/03/23 04:53:57;;;;;;;7.10;4.27;;;10.50;35.00;;;;;;5048266;28;47058;-67
2023/03/23 04:56:22;;;;;;;9.50;4.70;;;10.50;35.10;;;;;;5049356;28;46432;-66
2023/03/23 04:58:48;;;;;;;6.43;4.20;;;10.50;35.30;;;;;;5048696;28;46410;-66
2023/03/23 05:01:13;;;;;;;6.47;3.70;;;10.50;35.30;;;;;;5049036;28;46666;-66
2023/03/23 05:03:40;;;;;;;5.10;3.73;;;10.50;35.40;;;;;;5046320;28;46337;-67
2023/03/23 05:06:06;;;;;;;6.73;3.80;;;10.50;35.50;;;;;;5048022;28;46596;-66
2023/03/23 05:08:32;;;;;;;6.43;4.10;;;10.50;35.90;;;;;;5049504;28;46337;-66
2023/03/23 05:10:59;;;;;;;7.17;3.83;;;10.50;36.40;;;;;;5049238;28;46528;-67
2023/03/23 05:13:26;;;;;;;8.90;4.30;;;10.50;36.30;;;;;;5048192;28;47398;-66
2023/03/23 05:15:52;;;;;;;11.20;4.10;;;10.60;36.30;;;;;;5047790;28;45767;-66
2023/03/23 05:18:18;;;;;;;5.40;3.53;;;10.70;36.50;;;;;;5050984;28;46384;-66
2023/03/23 05:20:46;;;;;;;8.60;3.93;;;10.60;36.20;;;;;;5048676;28;46912;-67
2023/03/23 05:23:12;;;;;;;6.33;3.63;;;10.70;36.10;;;;;;5047907;28;46459;-66
2023/03/23 05:25:40;;;;;;;7.00;3.70;;;10.70;36.00;;;;;;5047459;28;46570;-65
2023/03/23 05:28:12;;;;;;;6.20;3.97;;;10.70;35.90;;;;;;5048963;28;46693;-66
2023/03/23 05:30:38;;;;;;;9.23;3.83;;;10.70;35.90;;;;;;5047262;28;46444;-67
2023/03/23 05:33:05;;;;;;;6.43;4.13;;;10.70;35.90;;;;;;5048153;28;46723;-66
2023/03/23 05:35:31;;;;;;;5.63;3.80;;;10.70;35.90;;;;;;5048803;28;46486;-66
2023/03/23 05:37:56;;;;;;;7.77;3.90;;;10.70;36.00;;;;;;5049663;28;46344;-67
2023/03/23 05:40:27;;;;;;;10.57;4.00;;;10.70;36.10;;;;;;5049925;28;46607;-66
2023/03/23 05:42:55;;;;;;;6.83;4.20;;;10.60;36.30;;;;;;5047374;28;46414;-65
2023/03/23 05:45:22;;;;;;;8.07;4.40;;;10.60;36.50;;;;;;5049186;28;46432;-66
2023/03/23 05:47:48;;;;;;;6.70;4.40;;;10.60;36.40;;;;;;5047384;28;46452;-67
2023/03/23 05:50:14;;;;;;;6.23;3.70;;;10.60;36.40;;;;;;5049773;28;46639;-66
2023/03/23 05:52:40;;;;;;;8.27;4.80;;;10.70;36.50;;;;;;5049333;28;47007;-66
2023/03/23 05:55:07;;;;;;;8.60;4.20;;;10.70;36.50;;;;;;5047329;28;46733;-67
2023/03/23 05:57:33;;;;;;;7.03;3.60;;;10.70;36.20;;;;;;5046069;28;46456;-67
2023/03/23 05:59:59;;;;;;;5.50;3.43;;;10.70;36.30;;;;;;5048512;28;46678;-67
2023/03/23 06:02:28;;;;;;;6.00;3.33;;;10.80;36.00;;;;;;5045999;28;47127;-67
2023/03/23 06:04:58;;;;;;;8.90;3.80;;;10.80;36.00;;;;;;5048309;28;46380;-67
2023/03/23 06:07:25;;;;;;;6.40;4.13;;;10.80;35.70;;;;;;5048080;28;46452;-66
2023/03/23 06:09:51;;;;;;;8.67;3.93;;;10.90;35.80;;;;;;5047428;28;46433;-66
2023/03/23 06:12:20;;;;;;;10.03;4.20;;;11.00;35.60;;;;;;5048513;28;46365;-66
2023/03/23 06:14:46;;;;;;;6.03;3.90;;;11.00;35.40;;;;;;5048278;28;46475;-66
2023/03/23 06:17:13;;;;;;;4.77;3.13;;;11.10;35.20;;;;;;5048759;28;46328;-66
2023/03/23 06:19:38;;;;;;;5.47;3.40;;;11.20;34.90;;;;;;5046673;28;46459;-65
2023/03/23 06:22:05;;;;;;;6.80;4.30;;;11.30;34.70;;;;;;5046736;28;46582;-66
2023/03/23 06:24:32;;;;;;;12.30;4.63;;;11.40;34.40;;;;;;5047655;28;46378;-66
2023/03/23 06:26:59;;;;;;;6.63;4.17;;;11.50;34.20;;;;;;5047468;28;46665;-67
2023/03/23 06:29:24;;;;;;;5.93;3.97;;;11.50;34.00;;;;;;5047696;28;46459;-66
2023/03/23 06:31:55;;;;;;;8.30;3.27;;;11.60;33.90;;;;;;5046118;28;48476;-67
2023/03/23 06:34:21;;;;;;;7.47;4.00;;;11.70;33.80;;;;;;5046014;28;46461;-66
2023/03/23 06:36:47;;;;;;;7.30;4.20;;;11.80;33.60;;;;;;5046266;28;45904;-66
2023/03/23 06:39:13;;;;;;;6.37;3.83;;;11.90;33.40;;;;;;5049086;28;46629;-66
2023/03/23 06:41:39;;;;;;;9.10;4.27;;;12.00;33.20;;;;;;5048559;28;46758;-66
2023/03/23 06:44:06;;;;;;;5.57;3.53;;;12.10;32.90;;;;;;5041029;28;46381;-66
2023/03/23 06:46:32;;;;;;;11.07;3.43;;;12.30;32.60;;;;;;5045135;28;46535;-68
2023/03/23 06:48:57;;;;;;;7.33;4.07;;;12.40;32.20;;;;;;5053220;28;46406;-68
2023/03/23 06:51:23;;;;;;;16.60;3.80;;;12.60;31.60;;;;;;5047144;28;47908;-68
2023/03/23 06:53:49;;;;;;;13.80;4.97;;;12.80;31.20;;;;;;5045449;28;46582;-68
2023/03/23 06:56:15;;;;;;;8.67;3.70;;;13.10;30.70;;;;;;5045837;28;46909;-68
2023/03/23 06:58:45;;;;;;;8.53;4.10;;;13.30;31.50;;;;;;5044552;28;47575;-68
2023/03/23 07:01:11;;;;;;;13.53;3.97;;;13.40;29.90;;;;;;5045325;28;46971;-68
2023/03/23 07:03:39;;;;;;;8.90;4.10;;;13.60;29.70;;;;;;5045225;28;46484;-68
2023/03/23 07:06:05;;;;;;;11.67;4.20;;;13.80;29.40;;;;;;5045586;28;46511;-69
2023/03/23 07:08:30;;;;;;;7.80;4.03;;;13.90;28.90;;;;;;5045840;28;46478;-68
2023/03/23 07:10:56;;;;;;;7.10;3.60;;;14.10;29.10;;;;;;5047506;28;46762;-68
2023/03/23 07:13:23;;;;;;;6.30;4.03;;;14.30;29.10;;;;;;5044337;28;46429;-65
2023/03/23 07:15:50;;;;;;;6.20;4.00;;;14.50;28.60;;;;;;5047736;28;46333;-67
2023/03/23 07:18:16;;;;;;;5.90;3.60;;;14.70;28.30;;;;;;5050256;28;46662;-67
2023/03/23 07:20:42;;;;;;;10.10;3.73;;;14.90;27.90;;;;;;5049193;28;46356;-67
2023/03/23 07:23:08;;;;;;;7.40;3.70;;;15.10;27.50;;;;;;5050602;28;46467;-68
2023/03/23 07:25:35;;;;;;;7.83;3.80;;;15.30;27.00;;;;;;5047333;28;46487;-68
2023/03/23 07:28:02;;;;;;;10.13;3.97;;;15.40;26.90;;;;;;5048552;28;46493;-68
2023/03/23 07:30:29;;;;;;;13.30;4.00;;;15.60;26.80;;;;;;5042386;28;47196;-69
2023/03/23 07:32:56;;;;;;;6.40;3.20;;;15.70;26.70;;;;;;5048000;28;46507;-69
2023/03/23 07:35:22;;;;;;;7.00;3.43;;;15.70;26.50;;;;;;5048190;28;46514;-68
2023/03/23 07:37:48;;;;;;;8.17;3.40;;;15.80;26.50;;;;;;5048378;28;46568;-69
2023/03/23 07:40:15;;;;;;;7.30;2.80;;;15.80;26.60;;;;;;5048709;28;46954;-68
2023/03/23 07:42:49;;;;;;;5.43;2.77;;;15.90;26.50;;;;;;5049005;28;46479;-68
2023/03/23 07:45:15;;;;;;;7.77;3.20;;;15.90;26.20;;;;;;5047179;28;46504;-68
2023/03/23 07:47:40;;;;;;;4.93;2.60;;;16.00;26.10;;;;;;5045892;28;46593;-69
2023/03/23 07:50:08;;;;;;;4.37;2.77;;;16.00;26.00;;;;;;5047512;28;46899;-67
2023/03/23 07:52:35;;;;;;;4.57;2.80;;;16.00;25.70;;;;;;5047159;28;46616;-67
2023/03/23 07:55:02;;;;;;;5.27;2.80;;;16.10;25.50;;;;;;5049638;28;46419;-67
2023/03/23 07:57:29;;;;;;;5.90;2.63;;;16.20;25.30;;;;;;5048341;28;46386;-66
2023/03/23 07:59:55;;;;;;;3.97;2.63;;;16.30;25.00;;;;;;5048871;28;46707;-66
2023/03/23 08:02:21;;;;;;;4.33;2.80;;;16.40;24.80;;;;;;5050256;28;46583;-66
2023/03/23 08:04:47;;;;;;;4.63;2.30;;;16.50;24.50;;;;;;5048435;28;45877;-66
2023/03/23 08:07:16;;;;;;;4.80;3.00;;;16.50;24.40;;;;;;5037929;28;46207;-64
2023/03/23 08:09:43;;;;;;;5.10;2.80;;;16.60;24.20;;;;;;5035416;28;46289;-67
2023/03/23 08:12:08;;;;;;;5.43;2.50;;;16.70;23.80;;;;;;5031193;28;46378;-68
2023/03/23 08:14:34;;;;;;;5.97;2.57;;;16.70;24.50;;;;;;5029097;28;46541;-68
2023/03/23 08:17:00;;;;;;;8.10;2.20;;;16.80;23.50;;;;;;5031035;28;46690;-68
2023/03/23 08:19:26;;;;;;;8.23;2.50;;;16.80;23.00;;;;;;5030658;28;46632;-69
2023/03/23 08:21:52;;;;;;;5.30;2.43;;;17.00;22.80;;;;;;5028104;28;46383;-68
2023/03/23 08:24:18;;;;;;;4.30;2.57;;;17.10;22.40;;;;;;5031203;28;46386;-67
2023/03/23 08:26:44;;;;;;;6.10;2.73;;;17.30;22.00;;;;;;5025403;28;46715;-68
2023/03/23 08:29:10;;;;;;;9.97;2.53;;;17.50;21.50;;;;;;5027214;28;46605;-68
2023/03/23 08:31:37;;;;;;;4.20;2.43;;;17.70;20.90;;;;;;5029439;28;46539;-69
2023/03/23 08:34:04;;;;;;;4.00;2.17;;;17.90;21.00;;;;;;5029958;28;46328;-69
2023/03/23 08:36:34;;;;;;;4.30;2.40;;;17.90;20.90;;;;;;5028597;28;46540;-69
2023/03/23 08:39:00;;;;;;;6.20;2.20;;;18.10;21.10;;;;;;5027918;28;46496;-69
2023/03/23 08:41:26;;;;;;;3.90;2.30;;;18.30;20.40;;;;;;5030663;28;46407;-68
2023/03/23 08:43:52;;;;;;;6.80;2.30;;;18.50;19.90;;;;;;5029476;28;46431;-67
2023/03/23 08:46:19;;;;;;;5.70;2.20;;;18.50;18.40;;;;;;5030545;28;46417;-68
2023/03/23 08:48:46;;;;;;;4.00;2.20;;;18.40;18.60;;;;;;5037690;28;46334;-70
2023/03/23 08:51:12;;;;;;;4.03;2.00;;;18.30;17.70;;;;;;5030397;28;46510;-66
2023/03/23 08:53:38;;;;;;;5.80;2.20;;;18.40;18.20;;;;;;5029587;28;45815;-66
2023/03/23 08:56:09;;;;;;;6.90;2.33;;;18.50;18.10;;;;;;5027176;28;46496;-66
2023/03/23 08:58:36;;;;;;;8.80;2.53;;;18.50;18.10;;;;;;5026731;28;46564;-66
2023/03/23 09:01:02;;;;;;;8.53;2.60;;;18.40;18.30;;;;;;5023827;28;46719;-67
2023/03/23 09:03:29;;;;;;;8.23;2.93;;;18.20;18.40;;;;;;5027052;28;45780;-66
2023/03/23 09:05:59;;;;;;;6.80;3.40;;;18.20;19.40;;;;;;5026769;28;46901;-67
2023/03/23 09:08:27;;;;;;;6.27;3.20;;;18.20;18.40;;;;;;5027666;28;46878;-65
2023/03/23 09:10:53;;;;;;;6.80;2.70;;;18.30;18.30;;;;;;5024628;28;46901;-66
2023/03/23 09:13:18;;;;;;;3.63;2.40;;;18.50;18.20;;;;;;5028349;28;46501;-66
2023/03/23 09:15:44;;;;;;;4.57;2.77;;;18.60;18.20;;;;;;5027077;28;46691;-66
2023/03/23 09:18:10;;;;;;;4.93;2.50;;;18.60;17.00;;;;;;5029500;28;46380;-66
2023/03/23 09:20:37;;;;;;;4.93;2.17;;;18.70;17.30;;;;;;5026860;28;46903;-68
2023/03/23 09:23:03;;;;;;;6.53;2.60;;;18.80;17.10;;;;;;5026084;28;46790;-66
2023/03/23 09:25:29;;;;;;;5.73;2.30;;;19.10;16.80;;;;;;5028769;28;46497;-66
2023/03/23 09:27:57;;;;;;;4.47;1.93;;;19.30;16.40;;;;;;5027416;28;46477;-67
2023/03/23 09:30:26;;;;;;;4.50;2.13;;;19.30;15.90;;;;;;5032045;28;46781;-66
2023/03/23 09:32:52;;;;;;;6.20;2.30;;;19.40;15.90;;;;;;5026682;28;46346;-68
2023/03/23 09:35:21;;;;;;;6.53;2.47;;;19.40;15.50;;;;;;5026919;28;46656;-67
2023/03/23 09:37:48;;;;;;;6.53;2.10;;;19.50;15.10;;;;;;5027331;28;47175;-67
2023/03/23 09:40:21;;;;;;;2.73;1.63;;;19.50;14.50;;;;;;5027928;28;47175;-67
2023/03/23 09:42:56;;;;;;;3.67;2.30;;;19.60;14.40;;;;;;5027649;28;46830;-67
2023/03/23 09:45:45;;;;;;;7.70;2.60;;;19.70;14.60;;;;;;5027572;28;46504;-66
2023/03/23 09:48:50;;;;;;;4.30;2.20;;;19.50;14.20;;;;;;5025076;28;46554;-66
2023/03/23 09:51:42;;;;;;;3.90;1.80;;;19.50;14.70;;;;;;5027998;28;45799;-70
2023/03/23 09:54:33;;;;;;;3.97;1.93;;;19.30;13.90;;;;;;5027323;28;46491;-68
2023/03/23 09:57:00;;;;;;;5.40;1.80;;;18.80;14.30;;;;;;5028195;28;46557;-68
2023/03/23 09:59:46;;;;;;;5.07;2.03;;;19.00;15.00;;;;;;5028215;28;47303;-66
2023/03/23 10:02:24;;;;;;;5.30;2.33;;;19.00;14.60;;;;;;5028720;28;46508;-67
2023/03/23 10:04:56;;;;;;;3.80;1.70;;;18.90;14.90;;;;;;5028481;28;46444;-67
2023/03/23 10:07:27;;;;;;;3.70;2.07;;;18.90;14.90;;;;;;5023186;28;45870;-67
2023/03/23 10:09:56;;;;;;;6.13;2.20;;;18.70;15.10;;;;;;5028889;28;47438;-67
2023/03/23 10:12:58;;;;;;;6.30;2.20;;;18.80;15.10;;;;;;5028770;28;46624;-66
2023/03/23 10:15:43;;;;;;;7.30;2.37;;;18.70;14.90;;;;;;5024014;28;46571;-66
2023/03/23 10:18:36;;;;;;;4.17;1.90;;;18.70;15.00;;;;;;5029495;28;46429;-66
2023/03/23 10:21:03;;;;;;;4.23;2.47;;;18.90;15.10;;;;;;5026639;28;46410;-67
2023/03/23 10:23:47;;;;;;;4.70;2.43;;;19.00;15.00;;;;;;5030423;28;46598;-68
2023/03/23 10:26:38;;;;;;;4.20;2.43;;;19.10;14.80;;;;;;5026798;28;45782;-66
2023/03/23 10:29:06;;;;;;;6.90;2.20;;;19.10;14.70;;;;;;5025160;28;46490;-67
2023/03/23 10:31:41;;;;;;;4.43;2.10;;;19.10;14.80;;;;;;5025384;28;47205;-66
2023/03/23 10:34:22;;;;;;;5.13;2.37;;;19.30;14.60;;;;;;5022778;28;46400;-67
2023/03/23 10:37:17;;;;;;;4.20;2.00;;;19.40;14.50;;;;;;5026463;28;45904;-67
2023/03/23 10:39:54;;;;;;;3.90;1.80;;;19.70;14.20;;;;;;5027292;28;46382;-67
2023/03/23 10:42:32;;;;;;;8.13;2.40;;;20.10;14.00;;;;;;5027072;28;47244;-67
2023/03/23 10:45:01;;;;;;;4.90;2.50;;;20.30;13.50;;;;;;5026466;28;46410;-68
2023/03/23 10:47:28;;;;;;;5.53;2.10;;;20.40;13.60;;;;;;5025949;28;46464;-66
2023/03/23 10:50:05;;;;;;;3.47;2.07;;;20.50;13.40;;;;;;5025923;28;46988;-66
2023/03/23 10:52:37;;;;;;;6.00;2.33;;;20.40;13.30;;;;;;5028453;28;46492;-67
2023/03/23 10:55:10;;;;;;;4.70;2.33;;;20.30;11.80;;;;;;5028750;28;46395;-66
2023/03/23 10:57:39;;;;;;;5.53;2.47;;;20.10;13.10;;;;;;5026358;28;46480;-67
2023/03/23 11:00:08;;;;;;;4.60;2.60;;;19.90;12.90;;;;;;5033871;28;46381;-67
2023/03/23 11:02:43;;;;;;;3.80;2.23;;;20.00;13.10;;;;;;5025541;28;46393;-66
2023/03/23 11:05:42;;;;;;;4.97;2.60;;;20.10;12.10;;;;;;5027551;28;46403;-66
2023/03/23 11:08:20;;;;;;;8.20;3.00;;;20.30;12.80;;;;;;5027602;28;46524;-67
2023/03/23 11:10:54;;;;;;;3.90;2.13;;;20.90;11.90;;;;;;5029369;28;46555;-67
2023/03/23 11:13:22;;;;;;;5.80;2.07;;;21.10;12.20;;;;;;5029073;28;46407;-67
2023/03/23 11:15:49;;;;;;;5.83;2.63;;;20.90;11.90;;;;;;5026902;28;46441;-67
2023/03/23 11:18:26;;;;;;;8.43;2.17;;;20.70;11.80;;;;;;5029616;28;46466;-66
2023/03/23 11:20:56;;;;;;;5.60;2.27;;;20.30;11.60;;;;;;5024520;28;46269;-66
2023/03/23 11:23:29;;;;;;;3.87;2.20;;;20.20;11.50;;;;;;5025210;28;47210;-67
2023/03/23 11:26:15;;;;;;;4.10;2.30;;;20.30;11.50;;;;;;5028141;28;46454;-66
2023/03/23 11:29:02;;;;;;;5.57;2.50;;;20.70;11.80;;;;;;5026115;28;46522;-66
2023/03/23 11:31:44;;;;;;;6.93;2.90;;;21.00;11.50;;;;;;5025130;28;46750;-66
2023/03/23 11:34:20;;;;;;;4.40;2.27;;;21.10;11.40;;;;;;5027049;28;46466;-65
2023/03/23 11:36:53;;;;;;;10.87;2.03;;;20.90;12.00;;;;;;5028381;28;46382;-66
2023/03/23 11:39:33;;;;;;;5.50;2.70;;;20.90;11.80;;;;;;5028359;28;46347;-66
2023/03/23 11:42:11;;;;;;;4.10;2.10;;;20.70;11.80;;;;;;5028100;28;46801;-66
2023/03/23 11:44:42;;;;;;;3.37;1.60;;;20.70;11.80;;;;;;5027137;28;46163;-66
2023/03/23 11:47:39;;;;;;;3.87;2.00;;;20.50;11.70;;;;;;5027276;28;46376;-66
2023/03/23 11:50:26;;;;;;;6.13;2.20;;;20.40;11.60;;;;;;5028575;28;46026;-66
2023/03/23 11:53:19;;;;;;;4.60;1.77;;;20.00;11.30;;;;;;5027448;28;46643;-66
2023/03/23 11:55:45;;;;;;;2.40;1.23;;;19.70;11.80;;;;;;5029567;28;46353;-66
2023/03/23 11:58:15;;;;;;;3.80;1.50;;;19.60;12.30;;;;;;5027345;28;46362;-66
2023/03/23 12:00:58;;;;;;;4.07;1.70;;;19.40;12.10;;;;;;5027711;28;46500;-66
2023/03/23 12:03:30;;;;;;;3.37;1.63;;;19.20;12.20;;;;;;5029697;28;46430;-66
2023/03/23 12:06:19;;;;;;;3.23;1.60;;;19.00;12.80;;;;;;5029091;28;46561;-66
2023/03/23 12:09:10;;;;;;;4.53;2.10;;;19.00;13.10;;;;;;5031485;28;46350;-67
2023/03/23 12:11:52;;;;;;;5.20;1.93;;;18.90;12.60;;;;;;5032287;28;46469;-66
2023/03/23 12:14:43;;;;;;;3.77;1.67;;;18.80;13.00;;;;;;5026230;28;46626;-66
2023/03/23 12:17:15;;;;;;;3.13;1.70;;;18.90;13.30;;;;;;5028465;28;47126;-66
2023/03/23 12:20:09;;;;;;;5.10;1.60;;;18.70;13.10;;;;;;5029611;28;46489;-66
2023/03/23 12:22:48;;;;;;;6.17;1.67;;;18.60;13.00;;;;;;5035983;28;46834;-66
2023/03/23 12:25:46;;;;;;;5.40;1.60;;;18.60;13.10;;;;;;5027001;28;46688;-66
2023/03/23 12:28:21;;;;;;;3.40;1.40;;;18.50;13.40;;;;;;5027016;28;46739;-66
2023/03/23 12:31:15;;;;;;;4.40;1.90;;;18.50;13.60;;;;;;5033635;28;46465;-66
2023/03/23 12:33:59;;;;;;;4.20;1.90;;;18.70;13.80;;;;;;5035691;28;46330;-66
2023/03/23 12:36:25;;;;;;;3.77;2.20;;;18.50;13.50;;;;;;5029282;28;45939;-66
2023/03/23 12:39:52;;;;;;;5.03;1.70;;;18.50;13.50;;;;;;5029333;28;46350;-66
2023/03/23 12:42:51;;;;;;;3.43;1.63;;;18.40;13.50;;;;;;5009510;28;46275;-66
2023/03/23 12:45:47;;;;;;;4.80;1.80;;;18.40;13.60;;;;;;5027546;28;46509;-66
2023/03/23 12:48:18;;;;;;;4.23;1.87;;;18.50;14.00;;;;;;5026400;28;46493;-67
2023/03/23 12:51:03;;;;;;;3.67;1.50;;;18.70;13.50;;;;;;5026819;28;47108;-66
2023/03/23 12:53:38;;;;;;;2.80;1.63;;;18.90;13.60;;;;;;5026482;28;46493;-67
2023/03/23 12:56:46;;;;;;;3.77;1.83;;;19.20;13.60;;;;;;5030168;28;46415;-66
2023/03/23 12:59:39;;;;;;;8.30;2.00;;;19.40;13.50;;;;;;5026550;28;46485;-67
2023/03/23 13:02:30;;;;;;;4.03;2.00;;;19.60;13.10;;;;;;5028325;28;46924;-66
2023/03/23 13:05:20;;;;;;;3.60;1.90;;;19.60;13.00;;;;;;5027709;28;46307;-66
2023/03/23 13:07:53;;;;;;;3.30;1.90;;;19.50;13.10;;;;;;5026577;28;46531;-66
2023/03/23 13:10:24;;;;;;;3.57;1.90;;;19.50;13.40;;;;;;5034854;28;46322;-66